sensor_id;sensor_type;location;lat;lon;timestamp;P1;durP1;ratioP1;P2;durP2;ratioP2
1991;SDS011;997;48.448;8.924;2022-10-31T04:04:39;6.73;;;4.73;;
1991;SDS011;997;48.448;8.924;2022-10-31T04:07:06;6.90;;;6.20;;
1991;SDS011;997;48.448;8.924;2022-10-31T04:09:33;5.00;;;4.50;;
1991;SDS011;997;48.448;8.924;2022-10-31T04:12:01;5.60;;;4.97;;
1991;SDS011;997;48.448;8.924;2022-10-31T04:14:33;6.00;;;4.33;;
1991;SDS011;997;48.448;8.924;2022-10-31T04:17:13;5.50;;;4.97;;
1991;SDS011;997;48.448;8.924;2022-10-31T04:19:41;6.17;;;3.73;;
1991;SDS011;997;48.448;8.924;2022-10-31T04:22:07;6.60;;;5.03;;
1991;SDS011;997;48.448;8.924;2022-10-31T04:24:33;6.47;;;4.60;;
1991;SDS011;997;48.448;8.924;2022-10-31T04:26:58;7.97;;;4.43;;
1991;SDS011;997;48.448;8.924;2022-10-31T04:29:24;5.90;;;4.77;;
1991;SDS011;997;48.448;8.924;2022-10-31T04:31:50;8.47;;;5.00;;
1991;SDS011;997;48.448;8.924;2022-10-31T04:34:15;7.30;;;4.67;;
1991;SDS011;997;48.448;8.924;2022-10-31T04:36:41;4.63;;;4.23;;
1991;SDS011;997;48.448;8.924;2022-10-31T04:39:07;5.80;;;4.17;;
1991;SDS011;997;48.448;8.924;2022-10-31T04:41:32;6.03;;;4.47;;
1991;SDS011;997;48.448;8.924;2022-10-31T04:43:58;7.50;;;5.17;;
1991;SDS011;997;48.448;8.924;2022-10-31T04:46:23;11.63;;;4.77;;
1991;SDS011;997;48.448;8.924;2022-10-31T04:48:49;3.80;;;3.40;;
1991;SDS011;997;48.448;8.924;2022-10-31T04:51:15;4.90;;;4.27;;
1991;SDS011;997;48.448;8.924;2022-10-31T04:53:40;17.03;;;5.20;;
1991;SDS011;997;48.448;8.924;2022-10-31T04:56:06;8.83;;;4.20;;
1991;SDS011;997;48.448;8.924;2022-10-31T04:58:32;6.90;;;5.37;;
1991;SDS011;997;48.448;8.924;2022-10-31T05:00:57;11.30;;;4.60;;
1991;SDS011;997;48.448;8.924;2022-10-31T05:03:23;5.73;;;5.23;;
1991;SDS011;997;48.448;8.924;2022-10-31T05:05:49;5.73;;;4.43;;
1991;SDS011;997;48.448;8.924;2022-10-31T05:08:15;6.70;;;5.10;;
1991;SDS011;997;48.448;8.924;2022-10-31T05:10:40;5.20;;;4.70;;
1991;SDS011;997;48.448;8.924;2022-10-31T05:13:06;5.80;;;4.37;;
1991;SDS011;997;48.448;8.924;2022-10-31T05:15:32;4.50;;;4.10;;
1991;SDS011;997;48.448;8.924;2022-10-31T05:17:58;5.17;;;4.70;;
1991;SDS011;997;48.448;8.924;2022-10-31T05:20:25;6.93;;;4.73;;
1991;SDS011;997;48.448;8.924;2022-10-31T05:22:54;5.43;;;4.93;;
1991;SDS011;997;48.448;8.924;2022-10-31T05:25:21;5.00;;;4.37;;
1991;SDS011;997;48.448;8.924;2022-10-31T05:27:49;5.47;;;4.87;;
1991;SDS011;997;48.448;8.924;2022-10-31T05:30:21;7.00;;;4.90;;
1991;SDS011;997;48.448;8.924;2022-10-31T05:32:55;5.87;;;4.40;;
1991;SDS011;997;48.448;8.924;2022-10-31T05:35:22;6.23;;;5.40;;
1991;SDS011;997;48.448;8.924;2022-10-31T05:37:56;6.60;;;5.60;;
1991;SDS011;997;48.448;8.924;2022-10-31T05:40:23;6.00;;;4.87;;
1991;SDS011;997;48.448;8.924;2022-10-31T05:42:50;5.97;;;4.80;;
1991;SDS011;997;48.448;8.924;2022-10-31T05:45:17;4.30;;;4.00;;
1991;SDS011;997;48.448;8.924;2022-10-31T05:47:59;5.17;;;4.60;;
1991;SDS011;997;48.448;8.924;2022-10-31T05:50:26;4.40;;;3.60;;
1991;SDS011;997;48.448;8.924;2022-10-31T05:53:03;8.50;;;4.30;;
1991;SDS011;997;48.448;8.924;2022-10-31T05:55:30;4.60;;;4.20;;
1991;SDS011;997;48.448;8.924;2022-10-31T05:57:56;4.10;;;3.70;;
1991;SDS011;997;48.448;8.924;2022-10-31T06:00:23;5.03;;;4.43;;
1991;SDS011;997;48.448;8.924;2022-10-31T06:02:57;4.50;;;4.10;;
1991;SDS011;997;48.448;8.924;2022-10-31T06:05:26;4.33;;;3.93;;
1991;SDS011;997;48.448;8.924;2022-10-31T06:07:52;5.03;;;4.60;;
1991;SDS011;997;48.448;8.924;2022-10-31T06:10:18;6.47;;;4.97;;
1991;SDS011;997;48.448;8.924;2022-10-31T06:12:46;9.90;;;4.13;;
1991;SDS011;997;48.448;8.924;2022-10-31T06:15:12;4.70;;;4.30;;
1991;SDS011;997;48.448;8.924;2022-10-31T06:17:38;4.53;;;4.17;;
1991;SDS011;997;48.448;8.924;2022-10-31T06:20:04;5.53;;;5.03;;
1991;SDS011;997;48.448;8.924;2022-10-31T06:22:32;6.83;;;4.10;;
1991;SDS011;997;48.448;8.924;2022-10-31T06:24:58;4.43;;;4.03;;
1991;SDS011;997;48.448;8.924;2022-10-31T06:27:24;8.00;;;5.97;;
1991;SDS011;997;48.448;8.924;2022-10-31T06:29:50;5.70;;;4.67;;
1991;SDS011;997;48.448;8.924;2022-10-31T06:32:16;8.73;;;4.47;;
1991;SDS011;997;48.448;8.924;2022-10-31T06:34:42;6.53;;;4.67;;
1991;SDS011;997;48.448;8.924;2022-10-31T06:37:09;7.13;;;5.77;;
1991;SDS011;997;48.448;8.924;2022-10-31T06:39:36;6.87;;;4.37;;
1991;SDS011;997;48.448;8.924;2022-10-31T06:42:02;5.20;;;4.50;;
1991;SDS011;997;48.448;8.924;2022-10-31T06:44:28;5.57;;;4.90;;
1991;SDS011;997;48.448;8.924;2022-10-31T06:46:55;6.13;;;4.97;;
1991;SDS011;997;48.448;8.924;2022-10-31T06:49:20;5.57;;;4.97;;
1991;SDS011;997;48.448;8.924;2022-10-31T06:51:47;5.90;;;5.37;;
1991;SDS011;997;48.448;8.924;2022-10-31T06:54:13;7.13;;;4.67;;
1991;SDS011;997;48.448;8.924;2022-10-31T06:56:39;4.60;;;4.20;;
1991;SDS011;997;48.448;8.924;2022-10-31T06:59:05;4.90;;;4.47;;
1991;SDS011;997;48.448;8.924;2022-10-31T07:01:30;7.10;;;4.63;;
1991;SDS011;997;48.448;8.924;2022-10-31T07:03:56;5.40;;;4.17;;
1991;SDS011;997;48.448;8.924;2022-10-31T07:06:22;4.50;;;4.10;;
1991;SDS011;997;48.448;8.924;2022-10-31T07:08:47;3.90;;;3.60;;
1991;SDS011;997;48.448;8.924;2022-10-31T07:11:13;6.70;;;4.57;;
1991;SDS011;997;48.448;8.924;2022-10-31T07:13:39;8.80;;;5.07;;
1991;SDS011;997;48.448;8.924;2022-10-31T07:16:05;4.77;;;4.37;;
1991;SDS011;997;48.448;8.924;2022-10-31T07:18:32;6.57;;;4.63;;
1991;SDS011;997;48.448;8.924;2022-10-31T07:20:58;5.27;;;4.77;;
1991;SDS011;997;48.448;8.924;2022-10-31T07:23:25;8.90;;;4.50;;
1991;SDS011;997;48.448;8.924;2022-10-31T07:25:55;5.53;;;4.10;;
1991;SDS011;997;48.448;8.924;2022-10-31T07:28:21;8.53;;;3.57;;
1991;SDS011;997;48.448;8.924;2022-10-31T07:30:51;4.90;;;4.40;;
1991;SDS011;997;48.448;8.924;2022-10-31T07:33:17;7.73;;;4.50;;
1991;SDS011;997;48.448;8.924;2022-10-31T07:35:43;6.10;;;3.80;;
1991;SDS011;997;48.448;8.924;2022-10-31T07:38:09;7.33;;;5.33;;
1991;SDS011;997;48.448;8.924;2022-10-31T07:40:36;5.60;;;5.10;;
1991;SDS011;997;48.448;8.924;2022-10-31T07:43:02;5.30;;;4.80;;
1991;SDS011;997;48.448;8.924;2022-10-31T07:45:28;10.40;;;5.10;;
1991;SDS011;997;48.448;8.924;2022-10-31T07:47:54;5.13;;;4.20;;
1991;SDS011;997;48.448;8.924;2022-10-31T07:50:20;6.13;;;4.60;;
1991;SDS011;997;48.448;8.924;2022-10-31T07:53:00;4.17;;;3.77;;
1991;SDS011;997;48.448;8.924;2022-10-31T07:55:33;5.40;;;4.90;;
1991;SDS011;997;48.448;8.924;2022-10-31T07:58:01;11.53;;;4.90;;
1991;SDS011;997;48.448;8.924;2022-10-31T08:00:28;4.67;;;4.23;;
1991;SDS011;997;48.448;8.924;2022-10-31T08:03:01;4.90;;;4.50;;
1991;SDS011;997;48.448;8.924;2022-10-31T08:05:29;4.70;;;3.83;;
1991;SDS011;997;48.448;8.924;2022-10-31T08:07:55;4.67;;;4.17;;
1991;SDS011;997;48.448;8.924;2022-10-31T08:10:22;5.33;;;4.80;;
1991;SDS011;997;48.448;8.924;2022-10-31T08:15:44;7.60;;;4.33;;
1991;SDS011;997;48.448;8.924;2022-10-31T08:18:14;5.30;;;4.90;;
1991;SDS011;997;48.448;8.924;2022-10-31T08:20:41;6.13;;;4.37;;
1991;SDS011;997;48.448;8.924;2022-10-31T08:23:08;6.83;;;4.67;;
1991;SDS011;997;48.448;8.924;2022-10-31T08:25:35;5.80;;;4.30;;
1991;SDS011;997;48.448;8.924;2022-10-31T08:28:01;7.47;;;4.20;;
1991;SDS011;997;48.448;8.924;2022-10-31T08:30:28;4.67;;;3.93;;
1991;SDS011;997;48.448;8.924;2022-10-31T08:33:00;5.80;;;5.30;;
1991;SDS011;997;48.448;8.924;2022-10-31T08:35:36;5.90;;;4.67;;
1991;SDS011;997;48.448;8.924;2022-10-31T08:38:02;3.97;;;3.67;;
1991;SDS011;997;48.448;8.924;2022-10-31T08:40:28;5.17;;;3.80;;
1991;SDS011;997;48.448;8.924;2022-10-31T08:42:56;8.93;;;4.53;;
1991;SDS011;997;48.448;8.924;2022-10-31T08:45:25;5.30;;;4.80;;
1991;SDS011;997;48.448;8.924;2022-10-31T08:47:52;6.50;;;4.10;;
1991;SDS011;997;48.448;8.924;2022-10-31T08:50:21;6.30;;;3.20;;
1991;SDS011;997;48.448;8.924;2022-10-31T08:52:47;7.30;;;4.60;;
1991;SDS011;997;48.448;8.924;2022-10-31T08:55:12;5.20;;;4.30;;
1991;SDS011;997;48.448;8.924;2022-10-31T08:57:38;4.53;;;4.13;;
1991;SDS011;997;48.448;8.924;2022-10-31T09:00:04;4.93;;;4.30;;
1991;SDS011;997;48.448;8.924;2022-10-31T09:02:30;5.50;;;5.00;;
1991;SDS011;997;48.448;8.924;2022-10-31T09:04:56;5.63;;;4.60;;
1991;SDS011;997;48.448;8.924;2022-10-31T09:07:22;7.93;;;4.17;;
1991;SDS011;997;48.448;8.924;2022-10-31T09:09:47;7.00;;;5.17;;
1991;SDS011;997;48.448;8.924;2022-10-31T09:12:13;5.87;;;4.90;;
1991;SDS011;997;48.448;8.924;2022-10-31T09:14:38;7.20;;;4.80;;
1991;SDS011;997;48.448;8.924;2022-10-31T09:17:04;4.90;;;4.50;;
1991;SDS011;997;48.448;8.924;2022-10-31T09:19:30;5.10;;;3.90;;
1991;SDS011;997;48.448;8.924;2022-10-31T09:21:55;5.73;;;5.00;;
1991;SDS011;997;48.448;8.924;2022-10-31T09:24:21;6.77;;;4.63;;
1991;SDS011;997;48.448;8.924;2022-10-31T09:26:47;6.27;;;5.30;;
1991;SDS011;997;48.448;8.924;2022-10-31T09:29:13;5.40;;;3.67;;
1991;SDS011;997;48.448;8.924;2022-10-31T09:31:38;5.70;;;5.20;;
1991;SDS011;997;48.448;8.924;2022-10-31T09:34:04;5.67;;;3.63;;
1991;SDS011;997;48.448;8.924;2022-10-31T09:36:30;5.43;;;4.87;;
1991;SDS011;997;48.448;8.924;2022-10-31T09:38:55;6.93;;;5.20;;
1991;SDS011;997;48.448;8.924;2022-10-31T09:41:27;8.00;;;4.27;;
1991;SDS011;997;48.448;8.924;2022-10-31T09:44:03;5.80;;;4.40;;
1991;SDS011;997;48.448;8.924;2022-10-31T09:52:23;4.17;;;3.77;;
1991;SDS011;997;48.448;8.924;2022-10-31T09:57:35;5.07;;;4.27;;
1991;SDS011;997;48.448;8.924;2022-10-31T10:00:06;5.20;;;4.03;;
1991;SDS011;997;48.448;8.924;2022-10-31T10:05:37;12.50;;;4.83;;
1991;SDS011;997;48.448;8.924;2022-10-31T10:08:10;6.03;;;4.07;;
1991;SDS011;997;48.448;8.924;2022-10-31T10:10:51;5.30;;;4.07;;
1991;SDS011;997;48.448;8.924;2022-10-31T10:16:11;5.77;;;4.90;;
1991;SDS011;997;48.448;8.924;2022-10-31T10:26:27;6.60;;;4.20;;
1991;SDS011;997;48.448;8.924;2022-10-31T10:29:03;6.97;;;3.80;;
1991;SDS011;997;48.448;8.924;2022-10-31T10:31:41;12.20;;;5.10;;
1991;SDS011;997;48.448;8.924;2022-10-31T10:34:44;6.73;;;4.00;;
1991;SDS011;997;48.448;8.924;2022-10-31T10:40:11;7.00;;;5.13;;
1991;SDS011;997;48.448;8.924;2022-10-31T10:42:56;5.20;;;3.90;;
1991;SDS011;997;48.448;8.924;2022-10-31T10:45:45;5.67;;;4.17;;
1991;SDS011;997;48.448;8.924;2022-10-31T10:48:44;6.47;;;4.30;;
1991;SDS011;997;48.448;8.924;2022-10-31T10:51:23;4.57;;;3.97;;
1991;SDS011;997;48.448;8.924;2022-10-31T10:56:56;8.93;;;4.23;;
1991;SDS011;997;48.448;8.924;2022-10-31T10:59:26;6.43;;;4.10;;
1991;SDS011;997;48.448;8.924;2022-10-31T11:01:52;5.07;;;3.60;;
1991;SDS011;997;48.448;8.924;2022-10-31T11:07:05;5.03;;;4.13;;
1991;SDS011;997;48.448;8.924;2022-10-31T11:09:32;8.00;;;3.73;;
1991;SDS011;997;48.448;8.924;2022-10-31T11:11:59;6.63;;;4.60;;
1991;SDS011;997;48.448;8.924;2022-10-31T11:14:26;6.57;;;4.67;;
1991;SDS011;997;48.448;8.924;2022-10-31T11:17:17;8.30;;;4.80;;
1991;SDS011;997;48.448;8.924;2022-10-31T11:19:47;8.63;;;4.80;;
1991;SDS011;997;48.448;8.924;2022-10-31T11:22:14;6.30;;;5.70;;
1991;SDS011;997;48.448;8.924;2022-10-31T11:24:42;8.47;;;5.63;;
1991;SDS011;997;48.448;8.924;2022-10-31T11:27:16;7.60;;;5.13;;
1991;SDS011;997;48.448;8.924;2022-10-31T11:29:46;7.20;;;5.90;;
1991;SDS011;997;48.448;8.924;2022-10-31T11:34:48;10.33;;;7.00;;
1991;SDS011;997;48.448;8.924;2022-10-31T11:37:22;8.80;;;6.57;;
1991;SDS011;997;48.448;8.924;2022-10-31T11:39:55;7.57;;;6.27;;
1991;SDS011;997;48.448;8.924;2022-10-31T11:42:23;7.13;;;5.90;;
1991;SDS011;997;48.448;8.924;2022-10-31T11:44:51;6.07;;;5.47;;
1991;SDS011;997;48.448;8.924;2022-10-31T11:47:27;7.50;;;5.10;;
1991;SDS011;997;48.448;8.924;2022-10-31T11:49:55;11.40;;;6.00;;
1991;SDS011;997;48.448;8.924;2022-10-31T11:52:23;7.93;;;5.70;;
1991;SDS011;997;48.448;8.924;2022-10-31T11:54:55;9.30;;;6.90;;
1991;SDS011;997;48.448;8.924;2022-10-31T11:57:47;7.33;;;6.63;;
1991;SDS011;997;48.448;8.924;2022-10-31T12:02:51;7.90;;;7.20;;
1991;SDS011;997;48.448;8.924;2022-10-31T12:05:29;8.40;;;7.60;;
1991;SDS011;997;48.448;8.924;2022-10-31T12:07:57;7.03;;;6.33;;
1991;SDS011;997;48.448;8.924;2022-10-31T12:10:24;9.27;;;6.80;;
1991;SDS011;997;48.448;8.924;2022-10-31T12:16:10;8.30;;;6.83;;
1991;SDS011;997;48.448;8.924;2022-10-31T12:19:04;7.10;;;5.90;;
1991;SDS011;997;48.448;8.924;2022-10-31T12:21:43;10.63;;;6.60;;
1991;SDS011;997;48.448;8.924;2022-10-31T12:27:34;9.80;;;6.80;;
1991;SDS011;997;48.448;8.924;2022-10-31T12:30:14;18.30;;;9.03;;
1991;SDS011;997;48.448;8.924;2022-10-31T12:32:54;9.00;;;8.20;;
1991;SDS011;997;48.448;8.924;2022-10-31T12:35:49;8.00;;;6.63;;
1991;SDS011;997;48.448;8.924;2022-10-31T12:41:13;11.77;;;5.90;;
1991;SDS011;997;48.448;8.924;2022-10-31T12:46:30;5.50;;;4.50;;
1991;SDS011;997;48.448;8.924;2022-10-31T12:49:39;5.80;;;5.03;;
1991;SDS011;997;48.448;8.924;2022-10-31T12:54:51;7.60;;;5.30;;
1991;SDS011;997;48.448;8.924;2022-10-31T12:57:44;6.70;;;5.53;;
1991;SDS011;997;48.448;8.924;2022-10-31T13:00:13;6.53;;;5.60;;
1991;SDS011;997;48.448;8.924;2022-10-31T13:02:47;6.63;;;5.60;;
1991;SDS011;997;48.448;8.924;2022-10-31T13:05:22;8.87;;;5.10;;
1991;SDS011;997;48.448;8.924;2022-10-31T13:08:04;5.47;;;4.90;;
1991;SDS011;997;48.448;8.924;2022-10-31T13:10:36;5.20;;;4.70;;
1991;SDS011;997;48.448;8.924;2022-10-31T13:13:06;6.70;;;4.60;;
1991;SDS011;997;48.448;8.924;2022-10-31T13:15:50;7.87;;;4.60;;
1991;SDS011;997;48.448;8.924;2022-10-31T13:18:37;11.37;;;5.20;;
1991;SDS011;997;48.448;8.924;2022-10-31T13:21:18;11.53;;;4.70;;
1991;SDS011;997;48.448;8.924;2022-10-31T13:23:49;4.37;;;4.00;;
1991;SDS011;997;48.448;8.924;2022-10-31T13:28:57;4.97;;;3.80;;
1991;SDS011;997;48.448;8.924;2022-10-31T13:31:30;4.73;;;4.30;;
1991;SDS011;997;48.448;8.924;2022-10-31T13:33:57;5.80;;;4.83;;
1991;SDS011;997;48.448;8.924;2022-10-31T13:36:32;4.53;;;3.67;;
1991;SDS011;997;48.448;8.924;2022-10-31T13:44:48;4.97;;;3.60;;
1991;SDS011;997;48.448;8.924;2022-10-31T13:47:32;8.43;;;4.13;;
1991;SDS011;997;48.448;8.924;2022-10-31T13:50:05;7.00;;;3.60;;
1991;SDS011;997;48.448;8.924;2022-10-31T13:52:46;8.27;;;3.73;;
1991;SDS011;997;48.448;8.924;2022-10-31T13:58:35;4.17;;;3.60;;
1991;SDS011;997;48.448;8.924;2022-10-31T14:03:30;4.13;;;3.40;;
1991;SDS011;997;48.448;8.924;2022-10-31T14:05:58;3.60;;;3.00;;
1991;SDS011;997;48.448;8.924;2022-10-31T14:08:24;7.87;;;5.00;;
1991;SDS011;997;48.448;8.924;2022-10-31T14:10:51;6.50;;;4.50;;
1991;SDS011;997;48.448;8.924;2022-10-31T14:15:53;4.93;;;4.50;;
1991;SDS011;997;48.448;8.924;2022-10-31T14:18:29;10.53;;;4.50;;
1991;SDS011;997;48.448;8.924;2022-10-31T14:20:55;6.93;;;5.30;;
1991;SDS011;997;48.448;8.924;2022-10-31T14:26:30;5.17;;;4.63;;
1991;SDS011;997;48.448;8.924;2022-10-31T14:29:02;6.23;;;4.60;;
1991;SDS011;997;48.448;8.924;2022-10-31T14:31:44;9.23;;;4.53;;
1991;SDS011;997;48.448;8.924;2022-10-31T14:34:30;11.37;;;5.27;;
1991;SDS011;997;48.448;8.924;2022-10-31T14:39:59;7.40;;;4.67;;
1991;SDS011;997;48.448;8.924;2022-10-31T14:48:44;8.40;;;4.07;;
1991;SDS011;997;48.448;8.924;2022-10-31T14:51:38;6.17;;;5.47;;
1991;SDS011;997;48.448;8.924;2022-10-31T14:54:07;7.53;;;4.20;;
1991;SDS011;997;48.448;8.924;2022-10-31T14:57:06;9.20;;;4.40;;
1991;SDS011;997;48.448;8.924;2022-10-31T14:59:39;10.17;;;4.77;;
1991;SDS011;997;48.448;8.924;2022-10-31T15:02:13;7.77;;;5.20;;
1991;SDS011;997;48.448;8.924;2022-10-31T15:04:48;8.13;;;7.40;;
1991;SDS011;997;48.448;8.924;2022-10-31T15:07:26;10.50;;;8.07;;
1991;SDS011;997;48.448;8.924;2022-10-31T15:09:56;10.73;;;7.53;;
1991;SDS011;997;48.448;8.924;2022-10-31T15:12:43;11.07;;;7.23;;
1991;SDS011;997;48.448;8.924;2022-10-31T15:15:19;10.63;;;7.10;;
1991;SDS011;997;48.448;8.924;2022-10-31T15:17:57;11.07;;;8.13;;
1991;SDS011;997;48.448;8.924;2022-10-31T15:20:31;10.17;;;7.13;;
1991;SDS011;997;48.448;8.924;2022-10-31T15:23:02;17.33;;;8.33;;
1991;SDS011;997;48.448;8.924;2022-10-31T15:25:30;14.13;;;10.60;;
1991;SDS011;997;48.448;8.924;2022-10-31T15:27:58;15.50;;;10.07;;
1991;SDS011;997;48.448;8.924;2022-10-31T15:30:28;10.20;;;9.27;;
1991;SDS011;997;48.448;8.924;2022-10-31T15:32:54;12.90;;;8.70;;
1991;SDS011;997;48.448;8.924;2022-10-31T15:35:29;12.47;;;7.67;;
1991;SDS011;997;48.448;8.924;2022-10-31T15:37:58;9.40;;;7.90;;
1991;SDS011;997;48.448;8.924;2022-10-31T15:40:26;10.10;;;9.20;;
1991;SDS011;997;48.448;8.924;2022-10-31T15:42:54;9.33;;;8.37;;
1991;SDS011;997;48.448;8.924;2022-10-31T15:45:27;11.30;;;9.33;;
1991;SDS011;997;48.448;8.924;2022-10-31T15:48:13;9.73;;;8.20;;
1991;SDS011;997;48.448;8.924;2022-10-31T15:50:51;8.00;;;7.20;;
1991;SDS011;997;48.448;8.924;2022-10-31T15:53:21;9.47;;;8.20;;
1991;SDS011;997;48.448;8.924;2022-10-31T15:56:00;11.07;;;7.40;;
1991;SDS011;997;48.448;8.924;2022-10-31T15:58:27;8.57;;;7.50;;
1991;SDS011;997;48.448;8.924;2022-10-31T16:00:58;7.83;;;6.80;;
1991;SDS011;997;48.448;8.924;2022-10-31T16:03:29;8.87;;;6.60;;
1991;SDS011;997;48.448;8.924;2022-10-31T16:05:58;9.07;;;6.73;;
1991;SDS011;997;48.448;8.924;2022-10-31T16:10:54;9.87;;;7.60;;
1991;SDS011;997;48.448;8.924;2022-10-31T16:13:32;7.83;;;6.77;;
1991;SDS011;997;48.448;8.924;2022-10-31T16:16:13;8.17;;;6.67;;
1991;SDS011;997;48.448;8.924;2022-10-31T16:18:41;10.00;;;5.77;;
1991;SDS011;997;48.448;8.924;2022-10-31T16:21:08;10.30;;;7.00;;
1991;SDS011;997;48.448;8.924;2022-10-31T16:23:35;8.20;;;7.40;;
1991;SDS011;997;48.448;8.924;2022-10-31T16:26:06;8.63;;;6.77;;
1991;SDS011;997;48.448;8.924;2022-10-31T16:28:33;10.13;;;8.13;;
1991;SDS011;997;48.448;8.924;2022-10-31T16:31:00;12.73;;;11.00;;
1991;SDS011;997;48.448;8.924;2022-10-31T16:33:36;14.37;;;9.67;;
1991;SDS011;997;48.448;8.924;2022-10-31T16:38:52;9.20;;;8.33;;
1991;SDS011;997;48.448;8.924;2022-10-31T16:41:21;7.20;;;6.30;;
1991;SDS011;997;48.448;8.924;2022-10-31T16:43:48;7.40;;;6.70;;
1991;SDS011;997;48.448;8.924;2022-10-31T16:46:15;7.40;;;6.67;;
1991;SDS011;997;48.448;8.924;2022-10-31T16:48:46;6.53;;;5.80;;
1991;SDS011;997;48.448;8.924;2022-10-31T16:51:12;6.67;;;6.17;;
1991;SDS011;997;48.448;8.924;2022-10-31T16:53:38;7.13;;;6.43;;
1991;SDS011;997;48.448;8.924;2022-10-31T16:56:04;8.37;;;5.87;;
1991;SDS011;997;48.448;8.924;2022-10-31T16:58:33;9.40;;;6.30;;
1991;SDS011;997;48.448;8.924;2022-10-31T17:01:01;11.40;;;6.90;;
1991;SDS011;997;48.448;8.924;2022-10-31T17:03:29;5.50;;;5.10;;
1991;SDS011;997;48.448;8.924;2022-10-31T17:05:55;12.43;;;9.00;;
1991;SDS011;997;48.448;8.924;2022-10-31T17:08:21;12.90;;;9.00;;
1991;SDS011;997;48.448;8.924;2022-10-31T17:10:50;14.00;;;8.23;;
1991;SDS011;997;48.448;8.924;2022-10-31T17:13:19;16.33;;;11.70;;
1991;SDS011;997;48.448;8.924;2022-10-31T17:15:47;34.00;;;24.20;;
1991;SDS011;997;48.448;8.924;2022-10-31T17:18:15;23.10;;;17.23;;
1991;SDS011;997;48.448;8.924;2022-10-31T17:20:42;28.77;;;22.80;;
1991;SDS011;997;48.448;8.924;2022-10-31T17:23:09;37.07;;;24.00;;
1991;SDS011;997;48.448;8.924;2022-10-31T17:25:35;24.73;;;17.83;;
1991;SDS011;997;48.448;8.924;2022-10-31T17:28:02;48.60;;;36.30;;
1991;SDS011;997;48.448;8.924;2022-10-31T17:30:27;43.20;;;34.17;;
1991;SDS011;997;48.448;8.924;2022-10-31T17:32:53;41.17;;;31.43;;
1991;SDS011;997;48.448;8.924;2022-10-31T17:35:19;33.47;;;25.60;;
1991;SDS011;997;48.448;8.924;2022-10-31T17:37:46;27.13;;;20.90;;
1991;SDS011;997;48.448;8.924;2022-10-31T17:40:13;30.77;;;18.60;;
1991;SDS011;997;48.448;8.924;2022-10-31T17:42:40;16.07;;;13.03;;
1991;SDS011;997;48.448;8.924;2022-10-31T17:45:06;29.00;;;12.90;;
1991;SDS011;997;48.448;8.924;2022-10-31T17:47:33;18.27;;;11.53;;
1991;SDS011;997;48.448;8.924;2022-10-31T17:49:59;18.00;;;15.50;;
1991;SDS011;997;48.448;8.924;2022-10-31T17:52:25;16.13;;;12.57;;
1991;SDS011;997;48.448;8.924;2022-10-31T17:54:51;10.53;;;9.50;;
1991;SDS011;997;48.448;8.924;2022-10-31T17:57:16;11.30;;;9.70;;
1991;SDS011;997;48.448;8.924;2022-10-31T17:59:42;12.07;;;9.73;;
1991;SDS011;997;48.448;8.924;2022-10-31T18:02:09;9.60;;;8.70;;
1991;SDS011;997;48.448;8.924;2022-10-31T18:04:35;9.77;;;8.93;;
1991;SDS011;997;48.448;8.924;2022-10-31T18:07:02;18.10;;;15.23;;
1991;SDS011;997;48.448;8.924;2022-10-31T18:09:28;14.83;;;12.07;;
1991;SDS011;997;48.448;8.924;2022-10-31T18:11:54;14.47;;;10.53;;
1991;SDS011;997;48.448;8.924;2022-10-31T18:14:20;10.80;;;7.63;;
1991;SDS011;997;48.448;8.924;2022-10-31T18:16:45;10.50;;;6.77;;
1991;SDS011;997;48.448;8.924;2022-10-31T18:19:12;10.03;;;7.53;;
1991;SDS011;997;48.448;8.924;2022-10-31T18:21:40;8.83;;;8.00;;
1991;SDS011;997;48.448;8.924;2022-10-31T18:24:06;9.07;;;8.17;;
1991;SDS011;997;48.448;8.924;2022-10-31T18:26:32;9.37;;;8.47;;
1991;SDS011;997;48.448;8.924;2022-10-31T18:28:59;10.43;;;9.03;;
1991;SDS011;997;48.448;8.924;2022-10-31T18:31:24;11.53;;;9.60;;
1991;SDS011;997;48.448;8.924;2022-10-31T18:33:54;13.53;;;9.63;;
1991;SDS011;997;48.448;8.924;2022-10-31T18:36:20;12.23;;;10.97;;
1991;SDS011;997;48.448;8.924;2022-10-31T18:38:46;9.60;;;8.70;;
1991;SDS011;997;48.448;8.924;2022-10-31T18:41:13;11.57;;;7.93;;
1991;SDS011;997;48.448;8.924;2022-10-31T18:43:39;9.57;;;7.60;;
1991;SDS011;997;48.448;8.924;2022-10-31T18:46:06;9.13;;;8.33;;
1991;SDS011;997;48.448;8.924;2022-10-31T18:48:34;13.00;;;9.70;;
1991;SDS011;997;48.448;8.924;2022-10-31T18:51:03;10.90;;;9.30;;
1991;SDS011;997;48.448;8.924;2022-10-31T18:53:31;11.77;;;10.67;;
1991;SDS011;997;48.448;8.924;2022-10-31T18:55:57;13.47;;;10.67;;
1991;SDS011;997;48.448;8.924;2022-10-31T18:58:23;16.80;;;12.17;;
1991;SDS011;997;48.448;8.924;2022-10-31T19:00:49;12.90;;;11.60;;
1991;SDS011;997;48.448;8.924;2022-10-31T19:03:15;16.40;;;14.60;;
1991;SDS011;997;48.448;8.924;2022-10-31T19:05:41;17.43;;;15.70;;
1991;SDS011;997;48.448;8.924;2022-10-31T19:08:07;13.03;;;11.80;;
1991;SDS011;997;48.448;8.924;2022-10-31T19:10:34;13.40;;;12.20;;
1991;SDS011;997;48.448;8.924;2022-10-31T19:13:01;12.17;;;11.00;;
1991;SDS011;997;48.448;8.924;2022-10-31T19:15:27;18.00;;;10.20;;
1991;SDS011;997;48.448;8.924;2022-10-31T19:17:53;10.30;;;9.30;;
1991;SDS011;997;48.448;8.924;2022-10-31T19:20:19;13.67;;;10.57;;
1991;SDS011;997;48.448;8.924;2022-10-31T19:22:45;11.73;;;10.73;;
1991;SDS011;997;48.448;8.924;2022-10-31T19:25:11;29.30;;;15.00;;
1991;SDS011;997;48.448;8.924;2022-10-31T19:27:37;13.10;;;11.90;;
1991;SDS011;997;48.448;8.924;2022-10-31T19:30:03;18.10;;;14.10;;
1991;SDS011;997;48.448;8.924;2022-10-31T19:32:30;17.43;;;15.60;;
1991;SDS011;997;48.448;8.924;2022-10-31T19:34:56;14.10;;;12.70;;
1991;SDS011;997;48.448;8.924;2022-10-31T19:37:21;24.50;;;17.40;;
1991;SDS011;997;48.448;8.924;2022-10-31T19:39:47;20.33;;;18.23;;
1991;SDS011;997;48.448;8.924;2022-10-31T19:42:13;21.37;;;17.07;;
1991;SDS011;997;48.448;8.924;2022-10-31T19:44:38;13.50;;;12.17;;
1991;SDS011;997;48.448;8.924;2022-10-31T19:47:04;17.47;;;14.00;;
1991;SDS011;997;48.448;8.924;2022-10-31T19:49:30;17.03;;;15.07;;
1991;SDS011;997;48.448;8.924;2022-10-31T19:51:55;14.63;;;13.30;;
1991;SDS011;997;48.448;8.924;2022-10-31T19:54:21;13.80;;;12.40;;
1991;SDS011;997;48.448;8.924;2022-10-31T19:56:47;14.37;;;11.87;;
1991;SDS011;997;48.448;8.924;2022-10-31T19:59:12;12.47;;;10.67;;
1991;SDS011;997;48.448;8.924;2022-10-31T20:01:38;13.67;;;11.50;;
1991;SDS011;997;48.448;8.924;2022-10-31T20:04:04;11.33;;;10.17;;
1991;SDS011;997;48.448;8.924;2022-10-31T20:06:40;15.87;;;11.03;;
1991;SDS011;997;48.448;8.924;2022-10-31T20:09:07;11.10;;;10.10;;
1991;SDS011;997;48.448;8.924;2022-10-31T20:11:35;13.93;;;12.23;;
1991;SDS011;997;48.448;8.924;2022-10-31T20:14:02;18.63;;;12.00;;
1991;SDS011;997;48.448;8.924;2022-10-31T20:16:28;16.10;;;14.60;;
1991;SDS011;997;48.448;8.924;2022-10-31T20:18:54;14.00;;;12.63;;
1991;SDS011;997;48.448;8.924;2022-10-31T20:21:21;15.63;;;14.00;;
1991;SDS011;997;48.448;8.924;2022-10-31T20:23:56;15.77;;;13.67;;
1991;SDS011;997;48.448;8.924;2022-10-31T20:26:24;15.03;;;13.50;;
1991;SDS011;997;48.448;8.924;2022-10-31T20:28:50;12.70;;;11.00;;
1991;SDS011;997;48.448;8.924;2022-10-31T20:31:18;11.87;;;10.77;;
1991;SDS011;997;48.448;8.924;2022-10-31T20:33:45;17.40;;;9.97;;
1991;SDS011;997;48.448;8.924;2022-10-31T20:36:12;9.57;;;8.67;;
1991;SDS011;997;48.448;8.924;2022-10-31T20:38:39;9.77;;;8.90;;
1991;SDS011;997;48.448;8.924;2022-10-31T20:41:06;13.20;;;9.07;;
1991;SDS011;997;48.448;8.924;2022-10-31T20:43:33;13.03;;;8.00;;
1991;SDS011;997;48.448;8.924;2022-10-31T20:46:00;9.30;;;8.53;;
1991;SDS011;997;48.448;8.924;2022-10-31T20:48:27;9.37;;;7.23;;
1991;SDS011;997;48.448;8.924;2022-10-31T20:51:04;11.13;;;8.50;;
1991;SDS011;997;48.448;8.924;2022-10-31T20:53:31;11.83;;;7.93;;
1991;SDS011;997;48.448;8.924;2022-10-31T20:56:04;8.40;;;7.60;;
1991;SDS011;997;48.448;8.924;2022-10-31T20:58:31;10.10;;;7.17;;
1991;SDS011;997;48.448;8.924;2022-10-31T21:00:58;11.53;;;8.27;;
1991;SDS011;997;48.448;8.924;2022-10-31T21:03:24;11.50;;;8.00;;
1991;SDS011;997;48.448;8.924;2022-10-31T21:05:54;15.63;;;8.60;;
1991;SDS011;997;48.448;8.924;2022-10-31T21:08:21;9.47;;;8.43;;